sensor_id;sensor_type;location;lat;lon;timestamp;P1;durP1;ratioP1;P2;durP2;ratioP2
20611;SDS011;10465;42.686;23.364;2023-04-24T00:00:12;7.57;;;4.65;;
20611;SDS011;10465;42.686;23.364;2023-04-24T00:02:40;9.40;;;5.30;;
20611;SDS011;10465;42.686;23.364;2023-04-24T00:05:06;5.75;;;4.72;;
20611;SDS011;10465;42.686;23.364;2023-04-24T00:07:33;8.90;;;5.10;;
20611;SDS011;10465;42.686;23.364;2023-04-24T00:09:59;7.30;;;5.18;;
20611;SDS011;10465;42.686;23.364;2023-04-24T00:12:25;5.30;;;4.30;;
20611;SDS011;10465;42.686;23.364;2023-04-24T00:14:51;9.52;;;5.35;;
20611;SDS011;10465;42.686;23.364;2023-04-24T00:17:17;5.75;;;4.65;;
20611;SDS011;10465;42.686;23.364;2023-04-24T00:19:46;7.35;;;4.80;;
20611;SDS011;10465;42.686;23.364;2023-04-24T00:22:12;8.55;;;5.90;;
20611;SDS011;10465;42.686;23.364;2023-04-24T00:24:40;10.98;;;4.82;;
20611;SDS011;10465;42.686;23.364;2023-04-24T00:27:06;8.73;;;5.25;;
20611;SDS011;10465;42.686;23.364;2023-04-24T00:29:31;8.90;;;5.00;;
20611;SDS011;10465;42.686;23.364;2023-04-24T00:31:57;8.98;;;5.35;;
20611;SDS011;10465;42.686;23.364;2023-04-24T00:34:23;6.97;;;5.18;;
20611;SDS011;10465;42.686;23.364;2023-04-24T00:36:48;6.70;;;4.88;;
20611;SDS011;10465;42.686;23.364;2023-04-24T00:39:20;7.90;;;5.60;;
20611;SDS011;10465;42.686;23.364;2023-04-24T00:41:46;7.88;;;5.38;;
20611;SDS011;10465;42.686;23.364;2023-04-24T00:44:13;7.85;;;5.53;;
20611;SDS011;10465;42.686;23.364;2023-04-24T00:46:39;9.05;;;5.18;;
20611;SDS011;10465;42.686;23.364;2023-04-24T00:49:05;7.75;;;5.57;;
20611;SDS011;10465;42.686;23.364;2023-04-24T00:51:31;8.48;;;6.03;;
20611;SDS011;10465;42.686;23.364;2023-04-24T00:53:57;7.40;;;5.50;;
20611;SDS011;10465;42.686;23.364;2023-04-24T00:56:23;7.65;;;5.38;;
20611;SDS011;10465;42.686;23.364;2023-04-24T00:58:49;7.07;;;5.18;;
20611;SDS011;10465;42.686;23.364;2023-04-24T01:01:15;7.22;;;5.15;;
20611;SDS011;10465;42.686;23.364;2023-04-24T01:03:40;8.00;;;5.35;;
20611;SDS011;10465;42.686;23.364;2023-04-24T01:06:06;8.07;;;5.03;;
20611;SDS011;10465;42.686;23.364;2023-04-24T01:08:32;6.60;;;4.57;;
20611;SDS011;10465;42.686;23.364;2023-04-24T01:10:59;6.25;;;5.10;;
20611;SDS011;10465;42.686;23.364;2023-04-24T01:13:28;6.97;;;5.30;;
20611;SDS011;10465;42.686;23.364;2023-04-24T01:15:54;7.95;;;4.88;;
20611;SDS011;10465;42.686;23.364;2023-04-24T01:18:19;11.40;;;5.13;;
20611;SDS011;10465;42.686;23.364;2023-04-24T01:20:46;7.60;;;5.10;;
20611;SDS011;10465;42.686;23.364;2023-04-24T01:23:15;8.82;;;5.20;;
20611;SDS011;10465;42.686;23.364;2023-04-24T01:25:42;8.30;;;5.03;;
20611;SDS011;10465;42.686;23.364;2023-04-24T01:28:07;6.95;;;5.28;;
20611;SDS011;10465;42.686;23.364;2023-04-24T01:30:33;8.73;;;5.47;;
20611;SDS011;10465;42.686;23.364;2023-04-24T01:32:59;7.50;;;5.63;;
20611;SDS011;10465;42.686;23.364;2023-04-24T01:35:24;8.50;;;6.00;;
20611;SDS011;10465;42.686;23.364;2023-04-24T01:37:51;7.38;;;5.32;;
20611;SDS011;10465;42.686;23.364;2023-04-24T01:40:16;6.53;;;5.20;;
20611;SDS011;10465;42.686;23.364;2023-04-24T01:42:41;7.63;;;5.18;;
20611;SDS011;10465;42.686;23.364;2023-04-24T01:45:08;7.93;;;5.50;;
20611;SDS011;10465;42.686;23.364;2023-04-24T01:47:36;8.60;;;5.90;;
20611;SDS011;10465;42.686;23.364;2023-04-24T01:50:03;7.15;;;5.32;;
20611;SDS011;10465;42.686;23.364;2023-04-24T01:52:29;12.55;;;5.90;;
20611;SDS011;10465;42.686;23.364;2023-04-24T01:54:56;6.43;;;5.18;;
20611;SDS011;10465;42.686;23.364;2023-04-24T01:57:24;9.25;;;5.93;;
20611;SDS011;10465;42.686;23.364;2023-04-24T01:59:50;10.90;;;7.03;;
20611;SDS011;10465;42.686;23.364;2023-04-24T02:02:16;10.35;;;6.88;;
20611;SDS011;10465;42.686;23.364;2023-04-24T02:04:41;8.15;;;6.45;;
20611;SDS011;10465;42.686;23.364;2023-04-24T02:07:07;10.40;;;7.45;;
20611;SDS011;10465;42.686;23.364;2023-04-24T02:09:33;9.20;;;7.32;;
20611;SDS011;10465;42.686;23.364;2023-04-24T02:11:58;10.48;;;6.88;;
20611;SDS011;10465;42.686;23.364;2023-04-24T02:14:24;11.27;;;6.57;;
20611;SDS011;10465;42.686;23.364;2023-04-24T02:16:49;12.93;;;7.00;;
20611;SDS011;10465;42.686;23.364;2023-04-24T02:19:15;8.65;;;5.75;;
20611;SDS011;10465;42.686;23.364;2023-04-24T02:21:40;8.35;;;6.10;;
20611;SDS011;10465;42.686;23.364;2023-04-24T02:24:06;10.90;;;7.22;;
20611;SDS011;10465;42.686;23.364;2023-04-24T02:26:31;10.10;;;7.40;;
20611;SDS011;10465;42.686;23.364;2023-04-24T02:28:57;9.50;;;7.13;;
20611;SDS011;10465;42.686;23.364;2023-04-24T02:31:22;8.93;;;6.93;;
20611;SDS011;10465;42.686;23.364;2023-04-24T02:33:48;11.82;;;7.05;;
20611;SDS011;10465;42.686;23.364;2023-04-24T02:36:13;8.20;;;6.63;;
20611;SDS011;10465;42.686;23.364;2023-04-24T02:38:39;10.88;;;7.10;;
20611;SDS011;10465;42.686;23.364;2023-04-24T02:41:04;9.55;;;7.28;;
20611;SDS011;10465;42.686;23.364;2023-04-24T02:43:31;10.43;;;6.78;;
20611;SDS011;10465;42.686;23.364;2023-04-24T02:45:57;7.20;;;6.47;;
20611;SDS011;10465;42.686;23.364;2023-04-24T02:48:23;9.43;;;7.15;;
20611;SDS011;10465;42.686;23.364;2023-04-24T02:50:48;8.98;;;6.88;;
20611;SDS011;10465;42.686;23.364;2023-04-24T02:53:15;8.10;;;6.63;;
20611;SDS011;10465;42.686;23.364;2023-04-24T02:55:41;10.38;;;6.93;;
20611;SDS011;10465;42.686;23.364;2023-04-24T02:58:06;9.88;;;6.90;;
20611;SDS011;10465;42.686;23.364;2023-04-24T03:00:31;13.07;;;6.45;;
20611;SDS011;10465;42.686;23.364;2023-04-24T03:02:57;12.00;;;7.10;;
20611;SDS011;10465;42.686;23.364;2023-04-24T03:05:22;10.18;;;6.75;;
20611;SDS011;10465;42.686;23.364;2023-04-24T03:07:48;10.02;;;7.88;;
20611;SDS011;10465;42.686;23.364;2023-04-24T03:10:13;11.15;;;7.55;;
20611;SDS011;10465;42.686;23.364;2023-04-24T03:12:39;21.23;;;10.35;;
20611;SDS011;10465;42.686;23.364;2023-04-24T03:15:04;16.83;;;7.53;;
20611;SDS011;10465;42.686;23.364;2023-04-24T03:17:30;9.35;;;7.18;;
20611;SDS011;10465;42.686;23.364;2023-04-24T03:19:56;10.40;;;7.32;;
20611;SDS011;10465;42.686;23.364;2023-04-24T03:22:21;9.20;;;6.78;;
20611;SDS011;10465;42.686;23.364;2023-04-24T03:24:46;8.55;;;6.68;;
20611;SDS011;10465;42.686;23.364;2023-04-24T03:27:12;9.65;;;6.15;;
20611;SDS011;10465;42.686;23.364;2023-04-24T03:29:37;7.95;;;6.47;;
20611;SDS011;10465;42.686;23.364;2023-04-24T03:32:02;9.25;;;6.20;;
20611;SDS011;10465;42.686;23.364;2023-04-24T03:34:28;8.52;;;6.25;;
20611;SDS011;10465;42.686;23.364;2023-04-24T03:36:53;12.43;;;7.15;;
20611;SDS011;10465;42.686;23.364;2023-04-24T03:39:19;9.32;;;7.22;;
20611;SDS011;10465;42.686;23.364;2023-04-24T03:41:44;10.40;;;6.68;;
20611;SDS011;10465;42.686;23.364;2023-04-24T03:44:10;9.48;;;6.38;;
20611;SDS011;10465;42.686;23.364;2023-04-24T03:46:35;8.57;;;6.30;;
20611;SDS011;10465;42.686;23.364;2023-04-24T03:49:01;9.35;;;7.38;;
20611;SDS011;10465;42.686;23.364;2023-04-24T03:51:26;9.23;;;6.65;;
20611;SDS011;10465;42.686;23.364;2023-04-24T03:53:52;8.75;;;6.85;;
20611;SDS011;10465;42.686;23.364;2023-04-24T03:56:18;13.63;;;9.25;;
20611;SDS011;10465;42.686;23.364;2023-04-24T03:58:44;9.25;;;7.03;;
20611;SDS011;10465;42.686;23.364;2023-04-24T04:01:10;9.27;;;6.28;;
20611;SDS011;10465;42.686;23.364;2023-04-24T04:03:36;8.25;;;6.18;;
20611;SDS011;10465;42.686;23.364;2023-04-24T04:06:02;10.55;;;6.53;;
20611;SDS011;10465;42.686;23.364;2023-04-24T04:08:27;8.13;;;6.05;;
20611;SDS011;10465;42.686;23.364;2023-04-24T04:10:53;14.48;;;6.10;;
20611;SDS011;10465;42.686;23.364;2023-04-24T04:13:18;8.02;;;5.65;;
20611;SDS011;10465;42.686;23.364;2023-04-24T04:15:44;7.32;;;5.03;;
20611;SDS011;10465;42.686;23.364;2023-04-24T04:18:10;9.73;;;5.63;;
20611;SDS011;10465;42.686;23.364;2023-04-24T04:20:36;7.97;;;5.07;;
20611;SDS011;10465;42.686;23.364;2023-04-24T04:23:01;7.70;;;5.47;;
20611;SDS011;10465;42.686;23.364;2023-04-24T04:25:26;7.95;;;5.00;;
20611;SDS011;10465;42.686;23.364;2023-04-24T04:27:52;12.88;;;5.63;;
20611;SDS011;10465;42.686;23.364;2023-04-24T04:30:18;8.38;;;5.82;;
20611;SDS011;10465;42.686;23.364;2023-04-24T04:32:45;8.23;;;5.47;;
20611;SDS011;10465;42.686;23.364;2023-04-24T04:35:11;10.60;;;5.53;;
20611;SDS011;10465;42.686;23.364;2023-04-24T04:37:37;10.48;;;5.57;;
20611;SDS011;10465;42.686;23.364;2023-04-24T04:40:03;7.22;;;5.63;;
20611;SDS011;10465;42.686;23.364;2023-04-24T04:42:32;7.72;;;5.50;;
20611;SDS011;10465;42.686;23.364;2023-04-24T04:44:59;6.88;;;5.85;;
20611;SDS011;10465;42.686;23.364;2023-04-24T04:47:25;6.22;;;5.63;;
20611;SDS011;10465;42.686;23.364;2023-04-24T04:49:51;12.00;;;5.15;;
20611;SDS011;10465;42.686;23.364;2023-04-24T04:52:17;6.22;;;5.07;;
20611;SDS011;10465;42.686;23.364;2023-04-24T04:54:43;6.70;;;5.03;;
20611;SDS011;10465;42.686;23.364;2023-04-24T04:57:08;8.32;;;5.45;;
20611;SDS011;10465;42.686;23.364;2023-04-24T04:59:35;7.05;;;5.70;;
20611;SDS011;10465;42.686;23.364;2023-04-24T05:02:00;11.18;;;6.20;;
20611;SDS011;10465;42.686;23.364;2023-04-24T05:04:25;9.73;;;6.22;;
20611;SDS011;10465;42.686;23.364;2023-04-24T05:06:51;10.02;;;6.32;;
20611;SDS011;10465;42.686;23.364;2023-04-24T05:09:17;9.50;;;6.70;;
20611;SDS011;10465;42.686;23.364;2023-04-24T05:11:43;10.77;;;6.40;;
20611;SDS011;10465;42.686;23.364;2023-04-24T05:14:09;7.53;;;6.22;;
20611;SDS011;10465;42.686;23.364;2023-04-24T05:16:34;10.07;;;7.15;;
20611;SDS011;10465;42.686;23.364;2023-04-24T05:19:00;10.93;;;7.32;;
20611;SDS011;10465;42.686;23.364;2023-04-24T05:21:25;12.23;;;8.60;;
20611;SDS011;10465;42.686;23.364;2023-04-24T05:23:51;9.50;;;7.68;;
20611;SDS011;10465;42.686;23.364;2023-04-24T05:26:17;11.98;;;8.45;;
20611;SDS011;10465;42.686;23.364;2023-04-24T05:28:42;13.32;;;8.05;;
20611;SDS011;10465;42.686;23.364;2023-04-24T05:31:08;16.02;;;8.95;;
20611;SDS011;10465;42.686;23.364;2023-04-24T05:33:33;13.15;;;9.25;;
20611;SDS011;10465;42.686;23.364;2023-04-24T05:35:59;13.15;;;9.00;;
20611;SDS011;10465;42.686;23.364;2023-04-24T05:38:25;11.90;;;9.27;;
20611;SDS011;10465;42.686;23.364;2023-04-24T05:40:53;11.60;;;8.23;;
20611;SDS011;10465;42.686;23.364;2023-04-24T05:43:18;15.30;;;8.52;;
20611;SDS011;10465;42.686;23.364;2023-04-24T05:45:43;11.38;;;8.68;;
20611;SDS011;10465;42.686;23.364;2023-04-24T05:48:09;16.45;;;8.38;;
20611;SDS011;10465;42.686;23.364;2023-04-24T05:50:34;14.30;;;9.00;;
20611;SDS011;10465;42.686;23.364;2023-04-24T05:53:00;13.38;;;8.38;;
20611;SDS011;10465;42.686;23.364;2023-04-24T05:55:27;11.60;;;8.90;;
20611;SDS011;10465;42.686;23.364;2023-04-24T05:57:52;15.35;;;9.25;;
20611;SDS011;10465;42.686;23.364;2023-04-24T06:00:18;13.20;;;9.18;;
20611;SDS011;10465;42.686;23.364;2023-04-24T06:02:45;12.73;;;8.88;;
20611;SDS011;10465;42.686;23.364;2023-04-24T06:05:11;13.48;;;9.30;;
20611;SDS011;10465;42.686;23.364;2023-04-24T06:07:36;14.35;;;8.65;;
20611;SDS011;10465;42.686;23.364;2023-04-24T06:10:02;14.98;;;9.23;;
20611;SDS011;10465;42.686;23.364;2023-04-24T06:12:28;13.75;;;10.30;;
20611;SDS011;10465;42.686;23.364;2023-04-24T06:14:53;12.13;;;10.02;;
20611;SDS011;10465;42.686;23.364;2023-04-24T06:17:20;15.85;;;9.90;;
20611;SDS011;10465;42.686;23.364;2023-04-24T06:19:46;14.90;;;10.30;;
20611;SDS011;10465;42.686;23.364;2023-04-24T06:22:12;12.93;;;8.63;;
20611;SDS011;10465;42.686;23.364;2023-04-24T06:24:37;12.35;;;9.55;;
20611;SDS011;10465;42.686;23.364;2023-04-24T06:27:02;13.32;;;10.02;;
20611;SDS011;10465;42.686;23.364;2023-04-24T06:29:28;15.75;;;11.77;;
20611;SDS011;10465;42.686;23.364;2023-04-24T06:31:53;12.85;;;10.18;;
20611;SDS011;10465;42.686;23.364;2023-04-24T06:34:19;12.02;;;8.98;;
20611;SDS011;10465;42.686;23.364;2023-04-24T06:36:46;14.30;;;9.88;;
20611;SDS011;10465;42.686;23.364;2023-04-24T06:39:12;10.65;;;9.20;;
20611;SDS011;10465;42.686;23.364;2023-04-24T06:41:37;13.93;;;9.48;;
20611;SDS011;10465;42.686;23.364;2023-04-24T06:44:03;15.98;;;9.18;;
20611;SDS011;10465;42.686;23.364;2023-04-24T06:46:28;13.85;;;10.00;;
20611;SDS011;10465;42.686;23.364;2023-04-24T06:48:53;13.20;;;9.23;;
20611;SDS011;10465;42.686;23.364;2023-04-24T06:51:21;10.45;;;8.60;;
20611;SDS011;10465;42.686;23.364;2023-04-24T06:53:53;17.70;;;9.77;;
20611;SDS011;10465;42.686;23.364;2023-04-24T06:56:20;12.98;;;9.13;;
20611;SDS011;10465;42.686;23.364;2023-04-24T06:58:46;13.50;;;9.63;;
20611;SDS011;10465;42.686;23.364;2023-04-24T07:01:12;15.00;;;9.80;;
20611;SDS011;10465;42.686;23.364;2023-04-24T07:03:37;12.30;;;9.57;;
20611;SDS011;10465;42.686;23.364;2023-04-24T07:06:07;13.88;;;9.10;;
20611;SDS011;10465;42.686;23.364;2023-04-24T07:08:33;14.77;;;9.13;;
20611;SDS011;10465;42.686;23.364;2023-04-24T07:10:59;15.68;;;9.10;;
20611;SDS011;10465;42.686;23.364;2023-04-24T07:13:25;13.32;;;9.15;;
20611;SDS011;10465;42.686;23.364;2023-04-24T07:15:51;13.23;;;9.55;;
20611;SDS011;10465;42.686;23.364;2023-04-24T07:18:18;12.43;;;8.93;;
20611;SDS011;10465;42.686;23.364;2023-04-24T07:20:44;12.48;;;9.00;;
20611;SDS011;10465;42.686;23.364;2023-04-24T07:23:10;15.45;;;9.60;;
20611;SDS011;10465;42.686;23.364;2023-04-24T07:25:36;14.80;;;9.63;;
20611;SDS011;10465;42.686;23.364;2023-04-24T07:28:09;11.77;;;9.50;;
20611;SDS011;10465;42.686;23.364;2023-04-24T07:30:35;11.88;;;9.25;;
20611;SDS011;10465;42.686;23.364;2023-04-24T07:33:00;14.02;;;9.65;;
20611;SDS011;10465;42.686;23.364;2023-04-24T07:35:26;12.77;;;9.93;;
20611;SDS011;10465;42.686;23.364;2023-04-24T07:37:55;20.95;;;10.32;;
20611;SDS011;10465;42.686;23.364;2023-04-24T07:40:21;22.92;;;11.27;;
20611;SDS011;10465;42.686;23.364;2023-04-24T07:42:49;14.07;;;9.55;;
20611;SDS011;10465;42.686;23.364;2023-04-24T07:45:15;11.90;;;9.13;;
20611;SDS011;10465;42.686;23.364;2023-04-24T07:47:43;12.70;;;9.68;;
20611;SDS011;10465;42.686;23.364;2023-04-24T07:50:10;13.43;;;10.02;;
20611;SDS011;10465;42.686;23.364;2023-04-24T07:52:36;13.10;;;8.60;;
20611;SDS011;10465;42.686;23.364;2023-04-24T07:55:02;11.20;;;8.35;;
20611;SDS011;10465;42.686;23.364;2023-04-24T07:57:28;12.50;;;7.78;;
20611;SDS011;10465;42.686;23.364;2023-04-24T07:59:53;11.95;;;8.75;;
20611;SDS011;10465;42.686;23.364;2023-04-24T08:02:19;11.20;;;7.50;;
20611;SDS011;10465;42.686;23.364;2023-04-24T08:04:46;10.40;;;8.00;;
20611;SDS011;10465;42.686;23.364;2023-04-24T08:07:12;10.77;;;7.47;;
20611;SDS011;10465;42.686;23.364;2023-04-24T08:09:38;12.43;;;7.53;;
20611;SDS011;10465;42.686;23.364;2023-04-24T08:12:03;7.53;;;6.70;;
20611;SDS011;10465;42.686;23.364;2023-04-24T08:14:29;7.60;;;6.80;;
20611;SDS011;10465;42.686;23.364;2023-04-24T08:16:54;10.65;;;7.20;;
20611;SDS011;10465;42.686;23.364;2023-04-24T08:19:21;7.90;;;7.07;;
20611;SDS011;10465;42.686;23.364;2023-04-24T08:21:46;8.40;;;6.60;;
20611;SDS011;10465;42.686;23.364;2023-04-24T08:24:11;9.23;;;7.15;;
20611;SDS011;10465;42.686;23.364;2023-04-24T08:26:37;10.77;;;7.47;;
20611;SDS011;10465;42.686;23.364;2023-04-24T08:29:02;10.40;;;6.57;;
20611;SDS011;10465;42.686;23.364;2023-04-24T08:31:28;11.52;;;7.75;;
20611;SDS011;10465;42.686;23.364;2023-04-24T08:33:54;10.43;;;6.88;;
20611;SDS011;10465;42.686;23.364;2023-04-24T08:36:19;8.73;;;6.88;;
20611;SDS011;10465;42.686;23.364;2023-04-24T08:38:45;11.27;;;6.18;;
20611;SDS011;10465;42.686;23.364;2023-04-24T08:41:11;11.73;;;7.07;;
20611;SDS011;10465;42.686;23.364;2023-04-24T08:43:40;8.43;;;5.85;;
20611;SDS011;10465;42.686;23.364;2023-04-24T08:46:06;8.50;;;6.63;;
20611;SDS011;10465;42.686;23.364;2023-04-24T08:48:32;11.40;;;6.18;;
20611;SDS011;10465;42.686;23.364;2023-04-24T08:50:58;7.93;;;6.20;;
20611;SDS011;10465;42.686;23.364;2023-04-24T08:53:24;9.65;;;6.68;;
20611;SDS011;10465;42.686;23.364;2023-04-24T08:55:50;10.70;;;8.48;;
20611;SDS011;10465;42.686;23.364;2023-04-24T08:58:17;8.07;;;6.70;;
20611;SDS011;10465;42.686;23.364;2023-04-24T09:00:45;9.38;;;6.10;;
20611;SDS011;10465;42.686;23.364;2023-04-24T09:03:15;9.95;;;7.40;;
20611;SDS011;10465;42.686;23.364;2023-04-24T09:05:42;11.00;;;6.68;;
20611;SDS011;10465;42.686;23.364;2023-04-24T09:08:15;10.10;;;6.47;;
20611;SDS011;10465;42.686;23.364;2023-04-24T09:10:43;10.15;;;7.00;;
20611;SDS011;10465;42.686;23.364;2023-04-24T09:13:09;9.20;;;6.57;;
20611;SDS011;10465;42.686;23.364;2023-04-24T09:15:36;14.57;;;7.25;;
20611;SDS011;10465;42.686;23.364;2023-04-24T09:18:02;9.32;;;6.88;;
20611;SDS011;10465;42.686;23.364;2023-04-24T09:20:29;8.05;;;6.18;;
20611;SDS011;10465;42.686;23.364;2023-04-24T09:22:54;7.95;;;6.18;;
20611;SDS011;10465;42.686;23.364;2023-04-24T09:25:22;9.43;;;6.25;;
20611;SDS011;10465;42.686;23.364;2023-04-24T09:27:47;7.93;;;6.32;;
20611;SDS011;10465;42.686;23.364;2023-04-24T09:30:13;11.32;;;7.10;;
20611;SDS011;10465;42.686;23.364;2023-04-24T09:32:45;8.60;;;6.45;;
20611;SDS011;10465;42.686;23.364;2023-04-24T09:35:12;7.85;;;6.00;;
20611;SDS011;10465;42.686;23.364;2023-04-24T09:37:40;9.10;;;6.40;;
20611;SDS011;10465;42.686;23.364;2023-04-24T09:40:11;8.85;;;6.30;;
20611;SDS011;10465;42.686;23.364;2023-04-24T09:42:37;7.95;;;6.00;;
20611;SDS011;10465;42.686;23.364;2023-04-24T09:45:03;9.88;;;6.70;;
20611;SDS011;10465;42.686;23.364;2023-04-24T09:47:39;8.00;;;5.85;;
20611;SDS011;10465;42.686;23.364;2023-04-24T09:50:09;9.38;;;5.85;;
20611;SDS011;10465;42.686;23.364;2023-04-24T09:52:35;9.10;;;6.03;;
20611;SDS011;10465;42.686;23.364;2023-04-24T09:55:02;9.65;;;6.13;;
20611;SDS011;10465;42.686;23.364;2023-04-24T09:57:35;7.60;;;5.68;;
20611;SDS011;10465;42.686;23.364;2023-04-24T10:00:00;9.57;;;6.45;;
20611;SDS011;10465;42.686;23.364;2023-04-24T10:02:26;9.43;;;6.53;;
20611;SDS011;10465;42.686;23.364;2023-04-24T10:04:55;10.30;;;6.18;;
20611;SDS011;10465;42.686;23.364;2023-04-24T10:07:27;8.23;;;5.60;;
20611;SDS011;10465;42.686;23.364;2023-04-24T10:09:53;8.88;;;5.43;;
20611;SDS011;10465;42.686;23.364;2023-04-24T10:12:19;9.27;;;5.30;;
20611;SDS011;10465;42.686;23.364;2023-04-24T10:14:46;6.60;;;5.43;;
20611;SDS011;10465;42.686;23.364;2023-04-24T10:17:11;6.43;;;5.75;;
20611;SDS011;10465;42.686;23.364;2023-04-24T10:19:39;6.10;;;5.15;;
20611;SDS011;10465;42.686;23.364;2023-04-24T10:22:06;5.88;;;5.28;;
20611;SDS011;10465;42.686;23.364;2023-04-24T10:24:31;8.68;;;5.40;;
20611;SDS011;10465;42.686;23.364;2023-04-24T10:26:58;8.35;;;5.25;;
20611;SDS011;10465;42.686;23.364;2023-04-24T10:29:26;11.27;;;5.90;;
20611;SDS011;10465;42.686;23.364;2023-04-24T10:31:52;10.07;;;5.38;;
20611;SDS011;10465;42.686;23.364;2023-04-24T10:34:18;8.73;;;5.32;;
20611;SDS011;10465;42.686;23.364;2023-04-24T10:36:50;8.07;;;5.50;;
20611;SDS011;10465;42.686;23.364;2023-04-24T10:39:17;9.52;;;5.70;;
20611;SDS011;10465;42.686;23.364;2023-04-24T10:41:44;7.18;;;6.10;;
20611;SDS011;10465;42.686;23.364;2023-04-24T10:44:14;11.45;;;5.68;;
20611;SDS011;10465;42.686;23.364;2023-04-24T10:46:44;6.82;;;5.50;;
20611;SDS011;10465;42.686;23.364;2023-04-24T10:49:13;6.85;;;4.93;;
20611;SDS011;10465;42.686;23.364;2023-04-24T10:51:45;8.88;;;5.88;;
20611;SDS011;10465;42.686;23.364;2023-04-24T10:54:22;9.95;;;5.40;;
20611;SDS011;10465;42.686;23.364;2023-04-24T10:56:52;6.97;;;5.47;;
20611;SDS011;10465;42.686;23.364;2023-04-24T10:59:25;8.65;;;5.18;;
20611;SDS011;10465;42.686;23.364;2023-04-24T11:01:52;7.60;;;5.55;;
20611;SDS011;10465;42.686;23.364;2023-04-24T11:04:29;7.68;;;5.30;;
20611;SDS011;10465;42.686;23.364;2023-04-24T11:06:56;7.07;;;5.47;;
20611;SDS011;10465;42.686;23.364;2023-04-24T11:09:22;8.25;;;5.05;;
20611;SDS011;10465;42.686;23.364;2023-04-24T11:11:51;8.30;;;5.50;;
20611;SDS011;10465;42.686;23.364;2023-04-24T11:14:29;15.73;;;6.10;;
20611;SDS011;10465;42.686;23.364;2023-04-24T11:16:54;11.63;;;6.28;;
20611;SDS011;10465;42.686;23.364;2023-04-24T11:19:24;12.60;;;5.85;;
20611;SDS011;10465;42.686;23.364;2023-04-24T11:21:54;12.40;;;5.60;;
20611;SDS011;10465;42.686;23.364;2023-04-24T11:32:22;8.50;;;5.70;;
20611;SDS011;10465;42.686;23.364;2023-04-24T11:34:50;9.20;;;5.65;;
20611;SDS011;10465;42.686;23.364;2023-04-24T11:37:17;9.05;;;5.13;;
20611;SDS011;10465;42.686;23.364;2023-04-24T11:39:43;7.07;;;5.15;;
20611;SDS011;10465;42.686;23.364;2023-04-24T11:42:09;5.45;;;4.75;;
20611;SDS011;10465;42.686;23.364;2023-04-24T11:44:34;5.78;;;4.32;;
20611;SDS011;10465;42.686;23.364;2023-04-24T11:47:03;5.18;;;3.88;;
20611;SDS011;10465;42.686;23.364;2023-04-24T11:49:37;4.60;;;4.07;;
20611;SDS011;10465;42.686;23.364;2023-04-24T11:52:03;5.47;;;4.93;;
20611;SDS011;10465;42.686;23.364;2023-04-24T11:54:29;4.68;;;4.13;;
20611;SDS011;10465;42.686;23.364;2023-04-24T11:56:55;4.47;;;4.07;;
20611;SDS011;10465;42.686;23.364;2023-04-24T11:59:21;4.97;;;4.47;;
20611;SDS011;10465;42.686;23.364;2023-04-24T12:01:47;6.28;;;4.68;;
20611;SDS011;10465;42.686;23.364;2023-04-24T12:04:15;6.35;;;4.65;;
20611;SDS011;10465;42.686;23.364;2023-04-24T12:07:01;5.32;;;4.60;;
20611;SDS011;10465;42.686;23.364;2023-04-24T12:09:26;7.28;;;4.40;;
20611;SDS011;10465;42.686;23.364;2023-04-24T12:11:55;8.80;;;4.22;;
20611;SDS011;10465;42.686;23.364;2023-04-24T12:14:24;6.35;;;4.10;;
20611;SDS011;10465;42.686;23.364;2023-04-24T12:16:50;7.38;;;4.85;;
20611;SDS011;10465;42.686;23.364;2023-04-24T12:19:22;4.93;;;4.15;;
20611;SDS011;10465;42.686;23.364;2023-04-24T12:24:28;5.93;;;5.05;;
20611;SDS011;10465;42.686;23.364;2023-04-24T12:26:53;8.13;;;5.22;;
20611;SDS011;10465;42.686;23.364;2023-04-24T12:29:20;6.13;;;5.10;;
20611;SDS011;10465;42.686;23.364;2023-04-24T12:31:46;5.50;;;5.00;;
20611;SDS011;10465;42.686;23.364;2023-04-24T12:34:18;8.95;;;4.72;;
20611;SDS011;10465;42.686;23.364;2023-04-24T12:36:47;4.55;;;3.55;;
20611;SDS011;10465;42.686;23.364;2023-04-24T12:39:19;3.88;;;3.58;;
20611;SDS011;10465;42.686;23.364;2023-04-24T12:42:25;5.30;;;4.00;;
20611;SDS011;10465;42.686;23.364;2023-04-24T12:44:36;5.05;;;4.05;;
20611;SDS011;10465;42.686;23.364;2023-04-24T12:47:02;5.50;;;4.25;;
20611;SDS011;10465;42.686;23.364;2023-04-24T12:51:55;4.70;;;4.18;;
20611;SDS011;10465;42.686;23.364;2023-04-24T12:54:20;4.43;;;4.03;;
20611;SDS011;10465;42.686;23.364;2023-04-24T12:56:47;5.75;;;4.75;;
20611;SDS011;10465;42.686;23.364;2023-04-24T12:59:12;5.80;;;4.40;;
20611;SDS011;10465;42.686;23.364;2023-04-24T13:01:38;5.93;;;4.63;;
20611;SDS011;10465;42.686;23.364;2023-04-24T13:04:04;8.13;;;4.72;;
20611;SDS011;10465;42.686;23.364;2023-04-24T13:06:30;5.95;;;4.97;;
20611;SDS011;10465;42.686;23.364;2023-04-24T13:08:56;5.82;;;5.22;;
20611;SDS011;10465;42.686;23.364;2023-04-24T13:11:23;5.10;;;4.18;;
20611;SDS011;10465;42.686;23.364;2023-04-24T13:13:48;6.32;;;5.15;;
20611;SDS011;10465;42.686;23.364;2023-04-24T13:16:14;6.78;;;4.43;;
20611;SDS011;10465;42.686;23.364;2023-04-24T13:18:40;4.88;;;4.45;;
20611;SDS011;10465;42.686;23.364;2023-04-24T13:21:06;5.50;;;4.95;;
20611;SDS011;10465;42.686;23.364;2023-04-24T13:23:31;6.07;;;5.05;;
20611;SDS011;10465;42.686;23.364;2023-04-24T13:25:57;4.95;;;4.55;;
20611;SDS011;10465;42.686;23.364;2023-04-24T13:28:26;5.35;;;4.65;;
20611;SDS011;10465;42.686;23.364;2023-04-24T13:30:51;5.65;;;4.75;;
20611;SDS011;10465;42.686;23.364;2023-04-24T13:33:17;6.55;;;4.82;;
20611;SDS011;10465;42.686;23.364;2023-04-24T13:35:42;6.50;;;4.70;;
20611;SDS011;10465;42.686;23.364;2023-04-24T13:38:08;4.75;;;4.22;;
20611;SDS011;10465;42.686;23.364;2023-04-24T13:40:34;6.25;;;5.00;;
20611;SDS011;10465;42.686;23.364;2023-04-24T13:43:00;6.18;;;4.82;;
20611;SDS011;10465;42.686;23.364;2023-04-24T13:45:26;6.95;;;5.10;;
20611;SDS011;10465;42.686;23.364;2023-04-24T13:47:51;5.63;;;5.03;;
20611;SDS011;10465;42.686;23.364;2023-04-24T13:50:18;7.30;;;5.90;;
20611;SDS011;10465;42.686;23.364;2023-04-24T13:52:45;7.05;;;5.30;;
20611;SDS011;10465;42.686;23.364;2023-04-24T13:55:10;6.15;;;5.47;;
20611;SDS011;10465;42.686;23.364;2023-04-24T13:57:36;8.60;;;4.90;;
20611;SDS011;10465;42.686;23.364;2023-04-24T14:00:01;5.13;;;4.60;;
20611;SDS011;10465;42.686;23.364;2023-04-24T14:02:29;7.22;;;5.05;;
20611;SDS011;10465;42.686;23.364;2023-04-24T14:04:54;5.65;;;4.95;;
20611;SDS011;10465;42.686;23.364;2023-04-24T14:07:20;9.20;;;5.15;;
20611;SDS011;10465;42.686;23.364;2023-04-24T14:09:46;5.40;;;4.90;;
20611;SDS011;10465;42.686;23.364;2023-04-24T14:12:11;5.38;;;4.47;;
20611;SDS011;10465;42.686;23.364;2023-04-24T14:14:37;9.05;;;5.60;;
20611;SDS011;10465;42.686;23.364;2023-04-24T14:17:03;6.97;;;4.75;;
20611;SDS011;10465;42.686;23.364;2023-04-24T14:19:28;6.68;;;4.50;;
20611;SDS011;10465;42.686;23.364;2023-04-24T14:21:53;5.72;;;4.40;;
20611;SDS011;10465;42.686;23.364;2023-04-24T14:24:21;6.20;;;3.97;;
20611;SDS011;10465;42.686;23.364;2023-04-24T14:26:47;5.68;;;4.38;;
20611;SDS011;10465;42.686;23.364;2023-04-24T14:29:12;5.95;;;4.13;;
20611;SDS011;10465;42.686;23.364;2023-04-24T14:31:38;7.25;;;4.65;;
20611;SDS011;10465;42.686;23.364;2023-04-24T14:34:03;6.47;;;4.95;;
20611;SDS011;10465;42.686;23.364;2023-04-24T14:36:29;5.40;;;4.38;;